Search for airport 
image banner adimage banner adimage banner ad
image banner ad

CL52 - San Joaquin General Hospital

Located in Stockton, United States

ICAO - CL52, IATA -

Data provided by Airmate  

General information

Coordinates: N37°53'16" W121°16'58"
Elevation is 15 feet MSL.
Magnetic variation is 16° East
View others Airports in California

Operational data

Special qualification required
Current time UTC:
Current local time:
Weather at : KSCK - Stockton Metropolitan ( 4 km )
METAR: KSCK 211155Z AUTO 33005KT 10SM CLR 14/12 A2983 RMK AO2 SLP100 T01440122 10200 20144 53006
TAF: KSCK 211120Z 2112/2212 31010KT P6SM SKC FM220000 31014G21KT P6SM SKC FM220600 28009KT P6SM SKC
View NOTAMs / SUP AIP / TFR affecting this airport [VIEW]
Communications frequencies: [VIEW]

Runways:

Airport contact information

Address: Stockton United States

Satellite view of CL52